createdAt,value
2018-01-26T00:01:16.712Z,5.60
2018-01-26T00:03:45.750Z,5.70
2018-01-26T00:06:14.780Z,5.80
2018-01-26T00:08:43.808Z,5.23
2018-01-26T00:11:12.843Z,4.87
2018-01-26T00:13:41.878Z,5.23
2018-01-26T00:16:10.940Z,6.20
2018-01-26T00:18:39.979Z,4.80
2018-01-26T00:21:08.990Z,5.47
2018-01-26T00:23:38.028Z,4.70
2018-01-26T00:26:07.065Z,6.10
2018-01-26T00:28:36.105Z,5.50
2018-01-26T00:33:41.092Z,6.30
2018-01-26T00:36:10.120Z,6.50
2018-01-26T00:38:39.157Z,6.30
2018-01-26T00:43:43.393Z,6.40
2018-01-26T00:46:12.419Z,5.67
2018-01-26T00:48:41.433Z,5.30
2018-01-26T00:51:10.482Z,4.60
2018-01-26T00:56:14.752Z,5.70
2018-01-26T00:58:43.785Z,4.63
2018-01-26T01:01:12.808Z,5.27
2018-01-26T01:03:41.842Z,4.73
2018-01-26T01:06:10.877Z,5.37
2018-01-26T01:11:16.092Z,5.07
2018-01-26T01:13:45.136Z,5.15
2018-01-26T01:16:14.213Z,5.70
2018-01-26T01:18:43.242Z,5.90
2018-01-26T01:21:12.269Z,5.33
2018-01-26T01:23:41.293Z,4.30
2018-01-26T01:26:10.409Z,5.37
2018-01-26T01:28:39.449Z,4.97
2018-01-26T01:31:08.472Z,4.40
2018-01-26T01:33:37.509Z,5.40
2018-01-26T01:36:06.565Z,4.90
2018-01-26T01:38:35.611Z,5.50
2018-01-26T01:41:04.657Z,5.10
2018-01-26T01:46:08.921Z,5.07
2018-01-26T01:48:37.953Z,5.55
2018-01-26T01:51:06.980Z,4.63
2018-01-26T01:53:36.006Z,4.57
2018-01-26T01:56:05.033Z,5.15
2018-01-26T01:58:34.122Z,5.40
2018-01-26T02:01:07.059Z,4.93
2018-01-26T02:03:36.079Z,4.30
2018-01-26T02:06:05.109Z,5.03
2018-01-26T02:08:34.144Z,5.27
2018-01-26T02:11:03.177Z,4.40
2018-01-26T02:13:32.226Z,5.60
2018-01-26T02:16:01.299Z,6.00
2018-01-26T02:18:30.328Z,6.13
2018-01-26T02:20:59.368Z,5.50
2018-01-26T02:23:28.393Z,4.40
2018-01-26T02:25:57.460Z,3.90
2018-01-26T02:28:26.510Z,4.87
2018-01-26T02:30:59.171Z,5.20
2018-01-26T02:33:28.185Z,5.30
2018-01-26T02:35:57.233Z,4.43
2018-01-26T02:38:26.258Z,4.23
2018-01-26T02:40:55.290Z,4.40
2018-01-26T02:43:24.368Z,4.23
2018-01-26T02:45:53.393Z,5.12
2018-01-26T02:48:22.444Z,4.80
2018-01-26T02:50:51.489Z,4.07
2018-01-26T02:53:20.599Z,4.23
2018-01-26T02:55:49.633Z,5.60
2018-01-26T02:58:26.005Z,4.70
2018-01-26T03:00:55.027Z,4.50
2018-01-26T03:03:24.052Z,5.12
2018-01-26T03:05:53.268Z,5.28
2018-01-26T03:08:22.296Z,5.63
2018-01-26T03:10:51.360Z,5.60
2018-01-26T03:13:24.616Z,5.13
2018-01-26T03:15:57.604Z,5.03
2018-01-26T03:18:26.620Z,5.53
2018-01-26T03:20:55.649Z,4.90
2018-01-26T03:23:24.681Z,5.47
2018-01-26T03:25:53.723Z,6.07
2018-01-26T03:28:22.753Z,5.70
2018-01-26T03:30:51.769Z,5.70
2018-01-26T03:33:20.803Z,5.97
2018-01-26T03:35:49.857Z,5.30
2018-01-26T03:38:18.881Z,4.50
2018-01-26T03:40:47.906Z,4.30
2018-01-26T03:43:16.941Z,4.30
2018-01-26T03:45:46.757Z,4.90
2018-01-26T03:48:18.209Z,4.67
2018-01-26T03:50:47.214Z,4.70
2018-01-26T03:53:16.247Z,4.40
2018-01-26T03:55:45.318Z,4.30
2018-01-26T03:58:14.335Z,4.95
2018-01-26T04:03:18.574Z,4.93
2018-01-26T04:05:47.616Z,5.20
2018-01-26T04:08:16.653Z,5.28
2018-01-26T04:13:20.904Z,4.70
2018-01-26T04:15:49.934Z,4.78
2018-01-26T04:18:18.965Z,4.10
2018-01-26T04:23:43.813Z,4.80
2018-01-26T04:26:12.848Z,3.90
2018-01-26T04:28:44.103Z,4.60
2018-01-26T04:31:14.016Z,4.80
2018-01-26T04:33:43.538Z,5.10
2018-01-26T04:36:12.569Z,5.72
2018-01-26T04:41:16.825Z,5.40
2018-01-26T04:43:45.865Z,5.50
2018-01-26T04:46:14.908Z,4.67
2018-01-26T04:48:43.948Z,5.00
2018-01-26T04:51:12.973Z,4.40
2018-01-26T04:53:42.064Z,4.00
2018-01-26T04:56:11.109Z,4.65
2018-01-26T04:58:40.143Z,4.80
2018-01-26T05:01:09.175Z,4.50
2018-01-26T05:03:38.201Z,4.20
2018-01-26T05:06:07.232Z,4.87
2018-01-26T05:08:36.282Z,4.53
2018-01-26T05:11:05.385Z,4.70
2018-01-26T05:13:34.396Z,4.65
2018-01-26T05:18:38.642Z,4.65
2018-01-26T05:21:07.677Z,4.00
2018-01-26T05:23:36.762Z,4.75
2018-01-26T05:26:05.869Z,4.93
2018-01-26T05:28:34.888Z,5.00
2018-01-26T05:31:03.933Z,4.23
2018-01-26T05:33:32.963Z,4.85
2018-01-26T05:36:02.012Z,4.60
2018-01-26T05:38:31.036Z,4.85
2018-01-26T05:41:00.073Z,5.27
2018-01-26T05:43:29.127Z,5.45
2018-01-26T05:45:58.213Z,5.90
2018-01-26T05:48:27.264Z,5.90
2018-01-26T05:50:56.299Z,5.40
2018-01-26T05:53:25.353Z,6.30
2018-01-26T05:55:54.406Z,5.80
2018-01-26T05:58:23.445Z,5.00
2018-01-26T06:03:27.680Z,5.53
2018-01-26T06:08:35.352Z,4.60
2018-01-26T06:11:04.390Z,4.37
2018-01-26T06:13:33.425Z,4.90
2018-01-26T06:16:02.465Z,5.43
2018-01-26T06:18:31.520Z,6.00
2018-01-26T06:21:00.570Z,4.07
2018-01-26T06:23:29.607Z,4.78
2018-01-26T06:25:58.640Z,5.55
2018-01-26T06:28:27.673Z,4.63
2018-01-26T06:30:56.716Z,5.30
2018-01-26T06:33:25.757Z,4.60
2018-01-26T06:35:54.808Z,5.87
2018-01-26T06:38:23.838Z,6.10
2018-01-26T06:40:52.889Z,5.53
2018-01-26T06:43:21.995Z,7.10
2018-01-26T06:45:51.020Z,8.07
2018-01-26T06:53:31.474Z,12.10
2018-01-26T06:56:00.543Z,4.77
2018-01-26T06:58:29.588Z,6.25
2018-01-26T07:03:33.917Z,7.18
2018-01-26T07:06:02.961Z,6.97
2018-01-26T07:08:32.000Z,5.40
2018-01-26T07:13:36.268Z,7.05
2018-01-26T07:18:40.568Z,5.40
2018-01-26T07:21:09.652Z,4.60
2018-01-26T07:23:38.701Z,5.40
2018-01-26T07:26:07.741Z,4.67
2018-01-26T07:28:36.776Z,5.37
2018-01-26T07:31:05.844Z,4.60
2018-01-26T07:33:34.877Z,6.30
2018-01-26T07:36:03.997Z,4.00
2018-01-26T07:38:33.985Z,5.00
2018-01-26T07:41:03.072Z,5.60
2018-01-26T07:43:32.124Z,5.10
2018-01-26T07:46:03.058Z,5.75
2018-01-26T07:48:32.087Z,5.45
2018-01-26T07:51:01.146Z,5.73
2018-01-26T07:53:30.181Z,6.15
2018-01-26T07:55:59.217Z,7.20
2018-01-26T07:58:28.265Z,7.87
2018-01-26T08:00:57.310Z,8.90
2018-01-26T08:03:26.361Z,7.80
2018-01-26T08:05:55.412Z,5.20
2018-01-26T08:08:24.450Z,5.50
2018-01-26T08:10:53.492Z,6.90
2018-01-26T08:13:22.524Z,9.63
2018-01-26T08:15:52.374Z,7.80
2018-01-26T08:18:21.413Z,7.07
2018-01-26T08:20:50.440Z,6.43
2018-01-26T08:23:19.473Z,6.50
2018-01-26T08:25:49.927Z,6.15
2018-01-26T08:28:28.379Z,5.80
2018-01-26T08:30:58.583Z,4.60
2018-01-26T08:33:27.673Z,5.63
2018-01-26T08:36:01.654Z,5.23
2018-01-26T08:38:30.652Z,6.30
2018-01-26T08:41:00.489Z,5.50
2018-01-26T08:43:29.523Z,6.30
2018-01-26T08:45:59.561Z,6.43
2018-01-26T08:48:28.649Z,6.50
2018-01-26T08:50:58.371Z,7.73
2018-01-26T08:53:27.445Z,7.23
2018-01-26T08:55:58.053Z,6.63
2018-01-26T08:58:27.079Z,6.30
2018-01-26T09:00:56.093Z,7.47
2018-01-26T09:06:00.338Z,9.70
2018-01-26T09:11:08.039Z,7.93
2018-01-26T09:13:37.114Z,7.73
2018-01-26T09:16:06.092Z,8.10
2018-01-26T09:18:35.129Z,8.03
2018-01-26T09:21:07.735Z,7.17
2018-01-26T09:23:36.976Z,6.57
2018-01-26T09:26:06.001Z,7.20
2018-01-26T09:28:35.029Z,6.70
2018-01-26T09:31:04.057Z,6.93
2018-01-26T09:33:33.091Z,7.60
2018-01-26T09:36:02.160Z,8.07
2018-01-26T09:38:31.197Z,8.33
2018-01-26T09:43:35.453Z,9.80
2018-01-26T09:46:04.712Z,9.23
2018-01-26T09:48:33.827Z,8.43
2018-01-26T09:51:02.844Z,8.13
2018-01-26T09:53:31.878Z,7.20
2018-01-26T09:56:01.644Z,7.67
2018-01-26T09:58:30.649Z,8.43
2018-01-26T10:00:59.694Z,9.20
2018-01-26T10:03:28.730Z,8.00
2018-01-26T10:05:57.784Z,8.30
2018-01-26T10:08:26.806Z,7.30
2018-01-26T10:10:55.866Z,8.80
2018-01-26T10:16:00.235Z,8.77
2018-01-26T10:18:29.295Z,8.63
2018-01-26T10:20:58.318Z,8.50
2018-01-26T10:23:27.355Z,8.50
2018-01-26T10:25:56.406Z,9.27
2018-01-26T10:31:00.689Z,9.65
2018-01-26T10:33:29.743Z,9.30
2018-01-26T10:35:58.781Z,8.13
2018-01-26T10:41:03.175Z,8.73
2018-01-26T10:43:32.198Z,8.20
2018-01-26T10:46:01.357Z,8.47
2018-01-26T10:48:30.325Z,9.47
2018-01-26T10:51:00.333Z,10.67
2018-01-26T10:53:29.399Z,9.17
2018-01-26T10:55:58.570Z,9.47
2018-01-26T10:58:27.632Z,10.00
2018-01-26T11:03:31.922Z,9.50
2018-01-26T11:06:00.994Z,10.48
2018-01-26T11:08:30.038Z,9.60
2018-01-26T11:10:59.074Z,8.73
2018-01-26T11:13:28.116Z,9.10
2018-01-26T11:15:57.167Z,8.30
2018-01-26T11:18:26.213Z,9.40
2018-01-26T11:20:55.286Z,8.60
2018-01-26T11:23:24.363Z,9.00
2018-01-26T11:25:54.905Z,8.73
2018-01-26T11:28:23.954Z,9.65
2018-01-26T11:30:52.993Z,9.57
2018-01-26T11:33:22.038Z,8.83
2018-01-26T11:35:51.093Z,9.00
2018-01-26T11:38:20.268Z,10.07
2018-01-26T11:40:49.272Z,8.67
2018-01-26T11:43:18.354Z,9.53
2018-01-26T11:45:47.418Z,9.40
2018-01-26T11:48:16.468Z,9.85
2018-01-26T11:50:45.590Z,9.63
2018-01-26T11:53:14.613Z,9.10
2018-01-26T11:55:43.689Z,9.37
2018-01-26T11:58:12.712Z,8.63
2018-01-26T12:00:41.766Z,9.63
2018-01-26T12:03:10.826Z,10.67
2018-01-26T12:05:39.877Z,10.17
2018-01-26T12:08:08.950Z,9.63
2018-01-26T12:10:38.596Z,10.50
2018-01-26T12:13:07.650Z,10.30
2018-01-26T12:15:37.645Z,9.90
2018-01-26T12:18:06.706Z,10.32
2018-01-26T12:20:36.767Z,9.70
2018-01-26T12:23:05.833Z,9.50
2018-01-26T12:25:35.892Z,9.17
2018-01-26T12:30:40.236Z,10.10
2018-01-26T12:33:09.293Z,9.63
2018-01-26T12:35:38.640Z,9.47
2018-01-26T12:38:07.686Z,9.30
2018-01-26T12:40:37.541Z,9.00
2018-01-26T12:45:41.945Z,9.60
2018-01-26T12:48:10.982Z,9.23
2018-01-26T12:50:40.037Z,9.00
2018-01-26T12:55:44.378Z,8.83
2018-01-26T12:58:13.421Z,9.05
2018-01-26T13:00:42.465Z,8.50
2018-01-26T13:03:11.528Z,8.67
2018-01-26T13:05:46.059Z,8.80
2018-01-26T13:10:50.602Z,8.45
2018-01-26T13:13:19.653Z,7.95
2018-01-26T13:15:48.714Z,8.53
2018-01-26T13:18:17.756Z,9.40
2018-01-26T13:20:46.805Z,8.90
2018-01-26T13:23:15.854Z,9.70
2018-01-26T13:25:45.046Z,8.33
2018-01-26T13:28:15.032Z,9.27
2018-01-26T13:30:44.103Z,9.60
2018-01-26T13:35:48.357Z,8.90
2018-01-26T13:38:17.423Z,8.30
2018-01-26T13:40:46.459Z,9.50
2018-01-26T13:43:15.505Z,9.37
2018-01-26T13:45:44.568Z,9.80
2018-01-26T13:48:13.630Z,9.30
2018-01-26T13:50:42.702Z,9.90
2018-01-26T13:53:11.757Z,9.20
2018-01-26T13:55:40.840Z,9.30
2018-01-26T13:58:09.919Z,10.13
2018-01-26T14:00:38.985Z,10.60
2018-01-26T14:03:08.038Z,10.40
2018-01-26T14:05:37.994Z,10.40
2018-01-26T14:08:07.022Z,10.70
2018-01-26T14:10:36.901Z,11.00
2018-01-26T14:15:41.206Z,11.10
2018-01-26T14:18:10.262Z,11.60
2018-01-26T14:20:39.321Z,11.77
2018-01-26T14:23:08.382Z,12.60
2018-01-26T14:25:38.119Z,11.77
2018-01-26T14:28:07.203Z,11.27
2018-01-26T14:30:36.993Z,11.37
2018-01-26T14:33:06.051Z,9.97
2018-01-26T14:35:35.941Z,10.50
2018-01-26T14:38:05.022Z,9.47
2018-01-26T14:40:34.106Z,10.35
2018-01-26T14:43:03.145Z,10.33
2018-01-26T14:45:32.226Z,10.97
2018-01-26T14:50:37.460Z,10.53
2018-01-26T14:53:10.163Z,11.57
2018-01-26T14:55:44.259Z,11.70
2018-01-26T14:58:18.939Z,11.93
2018-01-26T15:00:51.266Z,11.10
2018-01-26T15:03:20.298Z,12.03
2018-01-26T15:05:49.353Z,12.98
2018-01-26T15:13:29.817Z,13.75
2018-01-26T15:18:36.038Z,13.62
2018-01-26T15:21:05.062Z,13.10
2018-01-26T15:23:34.115Z,11.73
2018-01-26T15:26:03.184Z,13.23
2018-01-26T15:28:32.246Z,11.63
2018-01-26T15:31:01.821Z,11.33
2018-01-26T15:33:30.854Z,12.67
2018-01-26T15:35:59.918Z,14.57
2018-01-26T15:38:28.952Z,13.27
2018-01-26T15:40:58.000Z,13.30
2018-01-26T15:43:27.033Z,12.80
2018-01-26T15:45:56.078Z,12.60
2018-01-26T15:51:00.339Z,15.70
2018-01-26T15:53:29.390Z,13.53
2018-01-26T15:55:58.437Z,15.67
2018-01-26T15:58:27.482Z,16.35
2018-01-26T16:00:56.532Z,13.53
2018-01-26T16:03:25.575Z,14.40
2018-01-26T16:05:54.623Z,14.00
2018-01-26T16:08:23.842Z,13.20
2018-01-26T16:10:52.883Z,14.27
2018-01-26T16:13:21.918Z,15.43
2018-01-26T16:16:04.621Z,15.70
2018-01-26T16:18:33.705Z,14.03
2018-01-26T16:21:03.642Z,13.83
2018-01-26T16:23:32.694Z,11.80
2018-01-26T16:26:01.762Z,13.13
2018-01-26T16:28:30.800Z,12.20
2018-01-26T16:30:59.846Z,15.40
2018-01-26T16:33:28.899Z,15.07
2018-01-26T16:35:57.961Z,14.90
2018-01-26T16:41:02.249Z,29.17
2018-01-26T16:43:31.315Z,13.20
2018-01-26T16:46:00.381Z,14.87
2018-01-26T16:48:35.385Z,18.27
2018-01-26T16:51:09.777Z,19.60
2018-01-26T16:53:39.061Z,13.30
2018-01-26T16:56:08.758Z,11.67
2018-01-26T16:58:37.844Z,10.03
2018-01-26T17:01:10.240Z,11.77
2018-01-26T17:03:39.376Z,10.93
2018-01-26T17:06:08.964Z,11.33
2018-01-26T17:08:37.996Z,11.70
2018-01-26T17:11:07.753Z,11.77
2018-01-26T17:13:41.379Z,14.60
2018-01-26T17:16:11.194Z,11.57
2018-01-26T17:18:40.234Z,13.33
2018-01-26T17:21:09.294Z,14.27
2018-01-26T17:31:24.086Z,15.73
2018-01-26T17:33:53.142Z,15.35
2018-01-26T17:36:26.379Z,11.17
2018-01-26T17:38:55.438Z,13.13
2018-01-26T17:41:25.551Z,12.10
2018-01-26T17:43:54.879Z,12.57
2018-01-26T17:48:59.999Z,17.05
2018-01-26T17:51:29.061Z,18.08
2018-01-26T17:53:58.120Z,17.95
2018-01-26T17:56:28.086Z,16.10
2018-01-26T17:58:57.172Z,15.50
2018-01-26T18:01:26.219Z,14.33
2018-01-26T18:03:55.255Z,16.37
2018-01-26T18:06:24.312Z,16.13
2018-01-26T18:08:53.351Z,15.47
2018-01-26T18:11:22.425Z,13.60
2018-01-26T18:15:54.015Z,17.63
2018-01-26T18:20:58.371Z,19.20
2018-01-26T18:23:27.665Z,27.90
2018-01-26T18:25:56.712Z,22.30
2018-01-26T18:28:25.865Z,21.65
2018-01-26T18:30:54.914Z,17.80
2018-01-26T18:33:24.004Z,14.30
2018-01-26T18:41:03.891Z,24.30
2018-01-26T18:46:08.584Z,24.17
2018-01-26T18:48:37.772Z,18.50
2018-01-26T18:51:08.902Z,17.60
2018-01-26T18:53:39.703Z,18.23
2018-01-26T18:56:08.952Z,18.87
2018-01-26T18:58:38.064Z,17.30
2018-01-26T19:01:07.797Z,18.20
2018-01-26T19:06:18.879Z,16.90
2018-01-26T19:08:51.941Z,16.30
2018-01-26T19:11:26.183Z,14.93
2018-01-26T19:13:59.109Z,17.58
2018-01-26T19:16:33.598Z,14.40
2018-01-26T19:19:06.792Z,16.48
2018-01-26T19:21:35.803Z,18.77
2018-01-26T19:24:05.639Z,15.23
2018-01-26T19:26:34.710Z,20.83
2018-01-26T19:29:03.781Z,21.43
2018-01-26T19:31:32.818Z,27.98
2018-01-26T19:34:01.869Z,23.20
2018-01-26T19:36:30.908Z,22.60
2018-01-26T19:39:00.062Z,23.05
2018-01-26T19:41:30.936Z,17.50
2018-01-26T19:43:59.973Z,21.52
2018-01-26T19:46:29.037Z,21.15
2018-01-26T19:48:58.074Z,18.70
2018-01-26T19:51:28.050Z,16.70
2018-01-26T19:53:57.073Z,24.48
2018-01-26T19:56:26.135Z,20.00
2018-01-26T19:58:55.169Z,23.20
2018-01-26T20:01:24.220Z,23.87
2018-01-26T20:09:09.189Z,27.45
2018-01-26T20:11:38.166Z,26.40
2018-01-26T20:14:13.955Z,20.03
2018-01-26T20:16:43.507Z,24.48
2018-01-26T20:21:47.802Z,23.95
2018-01-26T20:24:22.477Z,20.30
2018-01-26T20:26:51.495Z,24.47
2018-01-26T20:29:20.544Z,21.60
2018-01-26T20:31:49.577Z,24.40
2018-01-26T20:34:18.625Z,24.73
2018-01-26T20:36:47.670Z,20.90
2018-01-26T20:39:16.714Z,24.70
2018-01-26T20:41:45.743Z,21.67
2018-01-26T20:44:14.789Z,25.80
2018-01-26T20:46:43.874Z,25.48
2018-01-26T20:49:12.901Z,20.50
2018-01-26T20:51:41.972Z,24.67
2018-01-26T20:54:10.998Z,21.00
2018-01-26T20:56:40.042Z,20.67
2018-01-26T20:59:09.081Z,23.50
2018-01-26T21:01:38.131Z,20.20
2018-01-26T21:04:07.191Z,23.87
2018-01-26T21:06:40.159Z,23.03
2018-01-26T21:09:09.201Z,24.15
2018-01-26T21:11:38.237Z,20.17
2018-01-26T21:14:07.292Z,23.92
2018-01-26T21:16:36.346Z,20.90
2018-01-26T21:19:05.393Z,18.63
2018-01-26T21:21:34.432Z,21.75
2018-01-26T21:24:03.469Z,22.17
2018-01-26T21:26:32.530Z,18.00
2018-01-26T21:29:01.626Z,19.00
2018-01-26T21:34:06.909Z,22.70
2018-01-26T21:36:35.975Z,22.55
2018-01-26T21:41:40.765Z,21.00
2018-01-26T21:44:09.802Z,17.60
2018-01-26T21:46:38.845Z,16.00
2018-01-26T21:49:07.885Z,19.73
2018-01-26T21:51:36.930Z,20.53
2018-01-26T21:56:41.204Z,23.75
2018-01-26T21:59:10.278Z,22.00
2018-01-26T22:01:39.327Z,21.45
2018-01-26T22:04:08.373Z,17.17
2018-01-26T22:09:15.081Z,20.10
2018-01-26T22:11:44.123Z,21.08
2018-01-26T22:14:13.192Z,17.47
2018-01-26T22:16:42.242Z,19.17
2018-01-26T22:19:11.296Z,22.87
2018-01-26T22:21:40.329Z,19.07
2018-01-26T22:24:09.370Z,21.00
2018-01-26T22:26:38.430Z,24.35
2018-01-26T22:29:07.484Z,18.67
2018-01-26T22:31:36.522Z,21.83
2018-01-26T22:34:05.549Z,17.43
2018-01-26T22:36:34.605Z,20.12
2018-01-26T22:39:03.639Z,17.10
2018-01-26T22:41:32.693Z,17.13
2018-01-26T22:44:01.726Z,18.10
2018-01-26T22:46:30.778Z,18.60
2018-01-26T22:48:59.823Z,18.30
2018-01-26T22:51:28.858Z,19.97
2018-01-26T22:53:57.901Z,23.48
2018-01-26T22:56:26.951Z,19.93
2018-01-26T22:58:56.001Z,18.30
2018-01-26T23:01:25.045Z,16.63
2018-01-26T23:03:54.095Z,15.60
2018-01-26T23:06:23.129Z,17.03
2018-01-26T23:08:52.181Z,16.80
2018-01-26T23:11:21.234Z,17.20
2018-01-26T23:13:50.285Z,16.90
2018-01-26T23:16:22.088Z,16.00
2018-01-26T23:18:53.823Z,19.62
2018-01-26T23:24:03.764Z,22.20
2018-01-26T23:26:36.031Z,18.40
2018-01-26T23:29:07.600Z,19.60
2018-01-26T23:31:39.287Z,18.70
2018-01-26T23:34:11.380Z,20.70
2018-01-26T23:39:18.977Z,22.65
2018-01-26T23:41:50.699Z,17.70
2018-01-26T23:44:22.218Z,17.50
2018-01-26T23:46:55.795Z,21.60
2018-01-26T23:49:27.426Z,18.07
2018-01-26T23:52:01.760Z,19.73
2018-01-26T23:57:08.224Z,21.67
